Catalina Jet — WDD8449 — position and weather

sailwx.info

Track history (hours):
 
Tides and Currents Weather Stations Pressure Air Temp Water Temp Dewpoint Dewpoint Depression Visibility Wind Speed Wind Dir Waves Ship Positions

Catalina Jet

Owner: RGWT, INC, San Pedro, CA. More information available from US FCC via Universal Licensing System and Coast Guard Vessel Documentation Center.

Last reported at 2018-Jun-25 00:30 UTC. Time now 2018-Jun-25 00:28 UTC.
Position N 33°46' W 118°12'.

Length 42 m; draft 3.7 m.

Type: High speed craft. MMSI: 367008510.

Date/timePositionNaut miles runAvg speedWind from/ knotsBaromVisibWave heightAir tempDewpointWater temp
2018-Jun-25 00:30N 33°46' W 118°12'0 0.0
2018-Jun-25 00:00N 33°46' W 118°12'917.6
2018-Jun-24 23:30N 33°37' W 118°12'1528.8
2018-Jun-24 23:00N 33°23' W 118°18'3 4.6
2018-Jun-24 22:24N 33°21' W 118°19'2 6.0
2018-Jun-24 22:00N 33°23' W 118°19'1428.6
2018-Jun-24 21:30N 33°36' W 118°14'1018.9
2018-Jun-24 21:00N 33°46' W 118°12'0 0.1
2018-Jun-24 20:30N 33°46' W 118°12'0 0.0
2018-Jun-24 20:00N 33°46' W 118°12'917.0
2018-Jun-24 19:30N 33°37' W 118°12'1529.6
2018-Jun-24 19:00N 33°23' W 118°19'13 8.5
2018-Jun-24 17:27N 33°36' W 118°13'1022.3
2018-Jun-24 17:00N 33°45' W 118°12'0 0.8
2018-Jun-24 16:31N 33°46' W 118°12'0 0.0
2018-Jun-24 16:01N 33°46' W 118°12'5 9.7
2018-Jun-24 15:30N 33°41' W 118°11'2013.0
2018-Jun-24 14:00N 33°23' W 118°19'1529.8
2018-Jun-24 13:30N 33°37' W 118°14'918.7
2018-Jun-24 13:00N 33°46' W 118°12'0 0.0
2018-Jun-24 12:30N 33°46' W 118°12'0 0.0
2018-Jun-24 12:01N 33°46' W 118°12'0 0.0
2018-Jun-24 11:30N 33°46' W 118°12'0 0.0
2018-Jun-24 11:00N 33°46' W 118°12'0 0.0
2018-Jun-24 10:30N 33°46' W 118°12'0 0.0
2018-Jun-24 03:50N 33°46' W 118°12'2 7.7
2018-Jun-24 03:30N 33°43' W 118°11'1528.2
2018-Jun-24 03:00N 33°29' W 118°15'9 7.4
2018-Jun-24 01:47N 33°21' W 118°19'1529.2
2018-Jun-24 01:16N 33°35' W 118°14'828.9
2018-Jun-24 01:00N 33°42' W 118°11'3 6.9
2018-Jun-24 00:31N 33°46' W 118°12'0 0.0
2018-Jun-24 00:01N 33°46' W 118°12'816.9
2018-Jun-23 23:30N 33°37' W 118°12'1712.8
2018-Jun-23 22:10N 33°21' W 118°19'1426.8
2018-Jun-23 21:39N 33°34' W 118°14'427.8
2018-Jun-23 21:30N 33°38' W 118°13'815.9
2018-Jun-23 21:01N 33°46' W 118°12'0 0.0
2018-Jun-23 20:31N 33°46' W 118°12'0 0.0
2018-Jun-23 20:00N 33°46' W 118°12'5 9.8
2018-Jun-23 19:30N 33°41' W 118°11'2115.1
2018-Jun-23 18:05N 33°21' W 118°19'1525.5
2018-Jun-23 17:31N 33°35' W 118°14'026.7
2018-Jun-23 17:30N 33°35' W 118°14'1121.5
2018-Jun-23 17:00N 33°46' W 118°12'0 0.7
2018-Jun-23 16:30N 33°46' W 118°12'0 0.0
2018-Jun-23 16:00N 33°46' W 118°12'612.1
2018-Jun-23 15:30N 33°40' W 118°12'1631.0
2018-Jun-23 15:00N 33°25' W 118°18'4 4.1
2018-Jun-23 14:05N 33°21' W 118°19'1528.0
2018-Jun-23 13:32N 33°35' W 118°13'128.5
2018-Jun-23 13:30N 33°36' W 118°13'1019.2
2018-Jun-23 13:00N 33°46' W 118°12'0 0.0
2018-Jun-23 12:30N 33°46' W 118°12'0 0.0
2018-Jun-23 12:00N 33°46' W 118°12'0 0.0
2018-Jun-23 11:30N 33°46' W 118°12'0 0.0
2018-Jun-23 11:00N 33°46' W 118°12'0 0.0
2018-Jun-23 10:29N 33°46' W 118°12'0 0.0
2018-Jun-23 03:43N 33°46' W 118°12'1 3.5
2018-Jun-23 03:30N 33°45' W 118°11'1326.3
2018-Jun-23 03:00N 33°32' W 118°14'1210.0
2018-Jun-23 01:51N 33°22' W 118°19'1030.0
2018-Jun-23 01:31N 33°31' W 118°16'1427.9
2018-Jun-23 01:00N 33°45' W 118°11'1 2.9
2018-Jun-23 00:30N 33°46' W 118°12'0 0.0
2018-Jun-23 00:00N 33°46' W 118°12'918.3
2018-Jun-22 23:30N 33°37' W 118°13'6 3.2
2018-Jun-22 21:45N 33°32' W 118°15'728.5
2018-Jun-22 21:30N 33°38' W 118°13'815.3
2018-Jun-22 21:00N 33°46' W 118°12'0 0.0
2018-Jun-22 20:30N 33°46' W 118°12'0 0.0
2018-Jun-22 20:00N 33°46' W 118°12'713.5
2018-Jun-22 19:30N 33°39' W 118°12'1428.6
2018-Jun-22 19:00N 33°25' W 118°17'5 5.8
2018-Jun-22 18:08N 33°21' W 118°19'1725.0
2018-Jun-22 17:28N 33°36' W 118°13'919.6
2018-Jun-22 17:00N 33°45' W 118°12'0 0.9
2018-Jun-22 16:30N 33°46' W 118°12'0 0.0
2018-Jun-22 16:00N 33°46' W 118°12'510.6
2018-Jun-22 15:31N 33°41' W 118°11'1830.2
2018-Jun-22 14:55N 33°24' W 118°18'2 2.6
2018-Jun-22 13:59N 33°21' W 118°19'1429.8
2018-Jun-22 13:30N 33°35' W 118°13'1121.6
2018-Jun-22 13:00N 33°46' W 118°12'0 0.1
2018-Jun-22 12:30N 33°46' W 118°12'0 0.0
2018-Jun-22 12:00N 33°46' W 118°12'0 0.0
2018-Jun-22 11:30N 33°46' W 118°12'0 0.0
2018-Jun-22 11:00N 33°46' W 118°12'0 0.0
2018-Jun-22 10:30N 33°46' W 118°12'0 0.0
2018-Jun-22 03:06N 33°46' W 118°12'0 0.0
2018-Jun-22 03:00N 33°46' W 118°12'0 0.0
2018-Jun-22 02:30N 33°46' W 118°12'816.0
2018-Jun-22 02:00N 33°38' W 118°12'1530.1
2018-Jun-22 01:30N 33°24' W 118°18'3 3.8
2018-Jun-22 00:42N 33°21' W 118°19'1123.8
2018-Jun-22 00:14N 33°31' W 118°15'730.0
2018-Jun-22 00:01N 33°38' W 118°13'816.3
2018-Jun-21 23:30N 33°46' W 118°12'0 0.0
2018-Jun-21 23:00N 33°46' W 118°12'0 0.0
2018-Jun-21 22:30N 33°46' W 118°12'611.2
2018-Jun-21 22:01N 33°40' W 118°11'1630.5
2018-Jun-21 21:30N 33°26' W 118°17'4 3.8
2018-Jun-21 20:19N 33°21' W 118°19'1329.8
2018-Jun-21 19:54N 33°34' W 118°14'1129.0
2018-Jun-21 19:31N 33°44' W 118°10'2 4.0
2018-Jun-21 19:00N 33°46' W 118°12'0 0.0
2018-Jun-21 18:30N 33°46' W 118°12'4 8.2
2018-Jun-21 18:00N 33°42' W 118°11'2213.6
2018-Jun-21 16:25N 33°21' W 118°19'1525.6
2018-Jun-21 15:51N 33°35' W 118°14'1029.0
2018-Jun-21 15:31N 33°44' W 118°10'2 3.8
2018-Jun-21 15:01N 33°46' W 118°12'0 0.0
2018-Jun-21 14:30N 33°46' W 118°12'0 0.0
2018-Jun-21 14:01N 33°46' W 118°12'0 0.0
2018-Jun-21 13:30N 33°46' W 118°12'0 0.0
2018-Jun-21 13:00N 33°46' W 118°12'0 0.0
2018-Jun-21 12:30N 33°46' W 118°12'0 0.0
2018-Jun-21 12:00N 33°46' W 118°12'0 0.0
2018-Jun-21 11:30N 33°46' W 118°12'0 0.0
2018-Jun-21 11:00N 33°46' W 118°12'0 0.0
2018-Jun-21 03:44N 33°46' W 118°12'0 2.0
2018-Jun-21 03:30N 33°45' W 118°12'1326.3
2018-Jun-21 03:00N 33°33' W 118°14'1316.4
2018-Jun-21 02:13N 33°21' W 118°19'0 0.0
2018-Jun-21 01:56N 33°21' W 118°19'1226.7
2018-Jun-21 01:29N 33°32' W 118°16'1327.3
2018-Jun-21 01:00N 33°45' W 118°11'1 2.6
2018-Jun-21 00:30N 33°46' W 118°12'0 0.0
2018-Jun-21 00:00N 33°46' W 118°12'816.6
2018-Jun-20 23:31N 33°38' W 118°12'1729.5
2018-Jun-20 22:57N 33°22' W 118°19'1 2.0
2018-Jun-20 22:19N 33°21' W 118°19'1522.1
2018-Jun-20 21:39N 33°35' W 118°14'429.9
2018-Jun-20 21:31N 33°39' W 118°13'714.2
2018-Jun-20 21:00N 33°46' W 118°12'0 0.0
2018-Jun-20 20:30N 33°46' W 118°12'0 0.0
2018-Jun-20 20:00N 33°46' W 118°12'611.3
2018-Jun-20 19:31N 33°40' W 118°11'1529.1
2018-Jun-20 19:00N 33°26' W 118°17'5 4.5
2018-Jun-20 17:51N 33°21' W 118°19'1529.3
2018-Jun-20 17:22N 33°35' W 118°13'1028.8
2018-Jun-20 17:00N 33°45' W 118°11'1 2.1
2018-Jun-20 16:30N 33°46' W 118°12'0 0.0
2018-Jun-20 16:00N 33°46' W 118°12'510.4
2018-Jun-20 15:30N 33°41' W 118°11'1530.6
2018-Jun-20 15:00N 33°26' W 118°17'5 5.4
2018-Jun-20 14:00N 33°21' W 118°19'1529.2
2018-Jun-20 13:30N 33°35' W 118°14'1121.7
2018-Jun-20 13:00N 33°46' W 118°12'0 0.1
2018-Jun-20 12:30N 33°46' W 118°12'0 0.0
2018-Jun-20 12:00N 33°46' W 118°12'0 0.0
2018-Jun-20 11:30N 33°46' W 118°12'0 0.0
2018-Jun-20 10:59N 33°46' W 118°12'0 0.0
2018-Jun-20 10:30N 33°46' W 118°12'0 0.0
2018-Jun-20 10:00N 33°46' W 118°12'0 0.0
2018-Jun-20 09:30N 33°46' W 118°12'0 0.0
2018-Jun-20 09:00N 33°46' W 118°12'0 0.0
2018-Jun-20 08:30N 33°46' W 118°12'0 0.0
2018-Jun-20 08:00N 33°46' W 118°12'0 0.0
2018-Jun-20 07:30N 33°46' W 118°12'0 0.0
2018-Jun-20 07:00N 33°46' W 118°12'0 0.0
2018-Jun-20 06:30N 33°46' W 118°12'0 0.0
2018-Jun-20 06:00N 33°46' W 118°12'0 0.0
2018-Jun-20 05:30N 33°46' W 118°12'0 0.0
2018-Jun-20 05:00N 33°46' W 118°12'0 0.0
2018-Jun-20 04:30N 33°46' W 118°12'0 0.0
2018-Jun-20 04:00N 33°46' W 118°12'0 0.0
2018-Jun-20 03:30N 33°46' W 118°12'0 0.0
2018-Jun-20 03:00N 33°46' W 118°12'0 0.0
2018-Jun-20 02:30N 33°46' W 118°12'613.1
2018-Jun-20 02:01N 33°39' W 118°12'1529.5
2018-Jun-20 01:30N 33°25' W 118°17'5 5.6
2018-Jun-20 00:38N 33°21' W 118°19'1428.8
2018-Jun-20 00:09N 33°34' W 118°14'430.6
2018-Jun-20 00:01N 33°38' W 118°13'714.8
2018-Jun-19 23:30N 33°46' W 118°12'0 0.0
2018-Jun-19 23:00N 33°46' W 118°12'0 0.0
2018-Jun-19 22:30N 33°46' W 118°12'713.0
2018-Jun-19 22:00N 33°39' W 118°12'1911.5
2018-Jun-19 20:20N 33°21' W 118°19'1528.7
2018-Jun-19 19:48N 33°35' W 118°14'928.7
2018-Jun-19 19:31N 33°43' W 118°11'2 4.8
2018-Jun-19 19:00N 33°46' W 118°12'0 0.0
2018-Jun-19 18:30N 33°46' W 118°12'4 8.2
2018-Jun-19 18:01N 33°42' W 118°11'2213.6
2018-Jun-19 16:24N 33°21' W 118°19'1327.0
2018-Jun-19 15:55N 33°33' W 118°14'1227.8
2018-Jun-19 15:30N 33°45' W 118°11'1 3.0
2018-Jun-19 15:00N 33°46' W 118°12'0 0.0
2018-Jun-19 14:30N 33°46' W 118°12'0 0.0
2018-Jun-19 14:00N 33°46' W 118°12'0 0.0
2018-Jun-19 13:30N 33°46' W 118°12'0 0.0
2018-Jun-19 13:00N 33°46' W 118°12'0 0.0
2018-Jun-19 12:30N 33°46' W 118°12'0 0.0
2018-Jun-19 12:00N 33°46' W 118°12'0 0.0
2018-Jun-19 03:41N 33°46' W 118°12'1 3.0
2018-Jun-19 03:30N 33°45' W 118°11'1325.7
2018-Jun-19 03:00N 33°33' W 118°14'3 1.5
2018-Jun-19 01:18N 33°35' W 118°14'929.5
2018-Jun-19 01:01N 33°44' W 118°11'2 4.8
2018-Jun-19 00:30N 33°46' W 118°12'0 0.0
2018-Jun-19 00:00N 33°46' W 118°12'816.6
2018-Jun-18 23:30N 33°38' W 118°13'1712.1
2018-Jun-18 22:04N 33°21' W 118°19'1528.5
2018-Jun-18 21:32N 33°36' W 118°13'129.8
2018-Jun-18 21:30N 33°36' W 118°13'1019.3
2018-Jun-18 21:00N 33°46' W 118°12'0 0.0
2018-Jun-18 20:30N 33°46' W 118°12'0 0.0
2018-Jun-18 20:00N 33°46' W 118°12'713.7
2018-Jun-18 19:31N 33°39' W 118°12'1913.0
2018-Jun-18 18:02N 33°21' W 118°19'0 6.1
2018-Jun-18 18:00N 33°21' W 118°19'1428.1
2018-Jun-18 17:31N 33°34' W 118°14'1122.3
2018-Jun-18 17:00N 33°45' W 118°12'0 0.8
2018-Jun-18 16:30N 33°46' W 118°12'0 0.0
2018-Jun-18 16:00N 33°46' W 118°12'815.6
2018-Jun-18 15:31N 33°38' W 118°12'1812.1
2018-Jun-18 14:03N 33°21' W 118°19'1229.3
2018-Jun-18 13:38N 33°33' W 118°15'429.4
2018-Jun-18 13:31N 33°36' W 118°14'1019.0
2018-Jun-18 13:00N 33°46' W 118°12'0 0.1
2018-Jun-18 12:30N 33°46' W 118°12'0 0.0
2018-Jun-18 12:00N 33°46' W 118°12'0 0.0
2018-Jun-18 11:30N 33°46' W 118°12'0 0.0
2018-Jun-18 11:00N 33°46' W 118°12'0 0.0
2018-Jun-18 10:30N 33°46' W 118°12'0 0.0
2018-Jun-18 04:22N 33°46' W 118°12'0 0.0
2018-Jun-18 04:00N 33°46' W 118°12'2 3.2
2018-Jun-18 03:31N 33°44' W 118°11'1428.7
2018-Jun-18 03:01N 33°31' W 118°15'10 8.4
2018-Jun-18 01:48N 33°21' W 118°19'1229.8
2018-Jun-18 01:24N 33°32' W 118°15'1230.0
2018-Jun-18 01:00N 33°44' W 118°11'2 4.4
2018-Jun-18 00:30N 33°46' W 118°12'0 0.0
2018-Jun-18 00:00N 33°46' W 118°12'1019.1
2018-Jun-17 23:30N 33°36' W 118°13'1611.8
2018-Jun-17 22:08N 33°21' W 118°19'1128.9
2018-Jun-17 21:46N 33°31' W 118°16'829.5
2018-Jun-17 21:30N 33°39' W 118°13'714.6
2018-Jun-17 21:00N 33°46' W 118°12'0 0.0
2018-Jun-17 20:30N 33°46' W 118°12'0 0.0
2018-Jun-17 20:00N 33°46' W 118°12'611.8
2018-Jun-17 19:31N 33°40' W 118°11'8 3.9
2018-Jun-17 17:32N 33°33' W 118°15'128.7
2018-Jun-17 17:30N 33°34' W 118°14'1224.5
2018-Jun-17 17:00N 33°45' W 118°12'0 1.0
2018-Jun-17 16:30N 33°46' W 118°12'0 0.0
2018-Jun-17 16:00N 33°46' W 118°12'5 9.3
2018-Jun-17 15:30N 33°41' W 118°11'5 2.7
2018-Jun-17 13:35N 33°36' W 118°13'230.3
2018-Jun-17 13:30N 33°39' W 118°12'714.4
2018-Jun-17 13:00N 33°46' W 118°12'0 0.0
2018-Jun-17 12:30N 33°46' W 118°12'0 0.0
2018-Jun-17 11:59N 33°46' W 118°12'0 0.0
2018-Jun-17 11:30N 33°46' W 118°12'0 0.0
2018-Jun-17 11:00N 33°46' W 118°12'0 0.0
2018-Jun-17 10:30N 33°46' W 118°12'0 0.0
2018-Jun-17 10:00N 33°46' W 118°12'0 0.0
2018-Jun-17 09:30N 33°46' W 118°12'0 0.0
2018-Jun-17 09:00N 33°46' W 118°12'0 0.0
2018-Jun-17 08:30N 33°46' W 118°12'0 0.0
2018-Jun-17 08:00N 33°46' W 118°12'0 0.0
2018-Jun-17 07:30N 33°46' W 118°12'0 0.0
2018-Jun-17 07:00N 33°46' W 118°12'0 0.0
2018-Jun-17 06:30N 33°46' W 118°12'0 0.0
2018-Jun-17 06:00N 33°46' W 118°12'0 0.0
2018-Jun-17 05:30N 33°46' W 118°12'0 0.0
2018-Jun-17 05:00N 33°46' W 118°12'0 0.0
2018-Jun-17 04:30N 33°46' W 118°12'0 0.0
2018-Jun-17 04:00N 33°46' W 118°12'0 0.9
2018-Jun-17 03:30N 33°45' W 118°12'1326.0
2018-Jun-17 03:01N 33°33' W 118°14'2 1.3
2018-Jun-17 01:21N 33°35' W 118°14'1029.5
2018-Jun-17 01:00N 33°44' W 118°11'2 3.4
2018-Jun-17 00:30N 33°46' W 118°12'0 0.0
2018-Jun-16 23:59N 33°46' W 118°12'918.9
2018-Jun-16 23:30N 33°37' W 118°13'1712.0
2018-Jun-16 22:07N 33°21' W 118°19'1428.7
2018-Jun-16 21:38N 33°35' W 118°14'430.9
2018-Jun-16 21:30N 33°38' W 118°13'815.4
2018-Jun-16 21:00N 33°46' W 118°12'0 0.0
2018-Jun-16 20:30N 33°46' W 118°12'0 0.0
2018-Jun-16 20:00N 33°46' W 118°12'510.8
2018-Jun-16 19:30N 33°41' W 118°11'1631.5
2018-Jun-16 19:00N 33°26' W 118°17'4 4.4
2018-Jun-16 18:03N 33°22' W 118°19'1228.3
2018-Jun-16 17:37N 33°33' W 118°14'327.9
2018-Jun-16 17:30N 33°36' W 118°13'918.5
2018-Jun-16 17:00N 33°46' W 118°12'0 0.2
2018-Jun-16 16:30N 33°46' W 118°12'0 0.0
2018-Jun-16 16:00N 33°46' W 118°12'5 9.1
2018-Jun-16 15:30N 33°41' W 118°11'2215.6
2018-Jun-16 14:08N 33°21' W 118°19'1327.1
2018-Jun-16 13:39N 33°33' W 118°14'429.1
2018-Jun-16 13:31N 33°37' W 118°13'917.3
2018-Jun-16 13:00N 33°46' W 118°12'0 0.0
2018-Jun-16 12:30N 33°46' W 118°12'0 0.0
2018-Jun-16 12:00N 33°46' W 118°12'0 0.0
2018-Jun-16 11:30N 33°46' W 118°12'0 0.0
2018-Jun-16 11:00N 33°46' W 118°12'0 0.0
2018-Jun-16 10:29N 33°46' W 118°12'0 0.0
2018-Jun-16 10:00N 33°46' W 118°12'0 0.0
2018-Jun-16 09:30N 33°46' W 118°12'0 0.1
2018-Jun-16 03:31N 33°46' W 118°12'0 6.8
2018-Jun-16 03:30N 33°45' W 118°12'1225.7
2018-Jun-16 03:01N 33°33' W 118°14'1310.6
2018-Jun-16 01:48N 33°21' W 118°19'1029.3
2018-Jun-16 01:27N 33°31' W 118°16'1329.8
2018-Jun-16 01:00N 33°43' W 118°11'2 5.0
2018-Jun-16 00:31N 33°46' W 118°12'0 0.0
2018-Jun-16 00:01N 33°46' W 118°12'815.2
2018-Jun-15 23:30N 33°38' W 118°12'1529.8
2018-Jun-15 23:00N 33°24' W 118°18'3 6.0
2018-Jun-15 22:28N 33°21' W 118°19'3 5.4
2018-Jun-15 21:57N 33°23' W 118°18'1329.6
2018-Jun-15 21:30N 33°36' W 118°13'1019.9
2018-Jun-15 21:00N 33°46' W 118°12'0 0.1
2018-Jun-15 20:30N 33°46' W 118°12'0 0.0
2018-Jun-15 20:00N 33°46' W 118°12'510.4
2018-Jun-15 19:31N 33°41' W 118°11'1630.0
2018-Jun-15 18:59N 33°26' W 118°17'4 3.9
2018-Jun-15 17:58N 33°22' W 118°19'1428.4
2018-Jun-15 17:28N 33°35' W 118°13'1022.0
2018-Jun-15 17:00N 33°46' W 118°12'0 0.6
2018-Jun-15 16:31N 33°46' W 118°12'0 0.0
2018-Jun-15 16:01N 33°46' W 118°12'4 8.5
2018-Jun-15 15:31N 33°42' W 118°11'1530.5
2018-Jun-15 15:00N 33°27' W 118°17'7 7.5
2018-Jun-15 14:06N 33°21' W 118°19'1026.0
2018-Jun-15 13:44N 33°30' W 118°16'629.5
2018-Jun-15 13:31N 33°36' W 118°13'1019.3
2018-Jun-15 13:01N 33°46' W 118°12'0 0.0
2018-Jun-15 12:30N 33°46' W 118°12'0 0.0
2018-Jun-15 12:01N 33°46' W 118°12'0 0.0
2018-Jun-15 11:31N 33°46' W 118°12'0 0.0
2018-Jun-15 11:01N 33°46' W 118°12'0 0.0
2018-Jun-15 05:18N 33°46' W 118°12'0 0.0
2018-Jun-15 05:00N 33°46' W 118°12'0 0.0
2018-Jun-15 04:30N 33°46' W 118°12'0 0.0
2018-Jun-15 04:00N 33°46' W 118°12'2 3.3
2018-Jun-15 03:30N 33°44' W 118°11'1427.9
2018-Jun-15 03:00N 33°31' W 118°16'1120.7
2018-Jun-15 02:29N 33°21' W 118°19'0 0.1
2018-Jun-15 02:00N 33°21' W 118°19'918.1
2018-Jun-15 01:30N 33°29' W 118°15'1429.0
2018-Jun-15 01:01N 33°43' W 118°11'  
Track history (hours):
 
Tides and Currents Weather Stations Pressure Air Temp Water Temp Dewpoint Dewpoint Depression Visibility Wind Speed Wind Dir Waves Ship Positions

Catalina Jet

Owner: RGWT, INC, San Pedro, CA. More information available from US FCC via Universal Licensing System and Coast Guard Vessel Documentation Center.

Last reported at 2018-Jun-25 00:30 UTC. Time now 2018-Jun-25 00:28 UTC.
Position N 33°46' W 118°12'.

Length 42 m; draft 3.7 m.

Type: High speed craft. MMSI: 367008510.

Date/timePositionNaut miles runAvg speedWind from/ knotsBaromVisibWave heightAir tempDewpointWater temp
2018-Jun-25 00:30N 33°46' W 118°12'0 0.0
2018-Jun-25 00:00N 33°46' W 118°12'917.6
2018-Jun-24 23:30N 33°37' W 118°12'1528.8
2018-Jun-24 23:00N 33°23' W 118°18'3 4.6
2018-Jun-24 22:24N 33°21' W 118°19'2 6.0
2018-Jun-24 22:00N 33°23' W 118°19'1428.6
2018-Jun-24 21:30N 33°36' W 118°14'1018.9
2018-Jun-24 21:00N 33°46' W 118°12'0 0.1
2018-Jun-24 20:30N 33°46' W 118°12'0 0.0
2018-Jun-24 20:00N 33°46' W 118°12'917.0
2018-Jun-24 19:30N 33°37' W 118°12'1529.6
2018-Jun-24 19:00N 33°23' W 118°19'13 8.5
2018-Jun-24 17:27N 33°36' W 118°13'1022.3
2018-Jun-24 17:00N 33°45' W 118°12'0 0.8
2018-Jun-24 16:31N 33°46' W 118°12'0 0.0
2018-Jun-24 16:01N 33°46' W 118°12'5 9.7
2018-Jun-24 15:30N 33°41' W 118°11'2013.0
2018-Jun-24 14:00N 33°23' W 118°19'1529.8
2018-Jun-24 13:30N 33°37' W 118°14'918.7
2018-Jun-24 13:00N 33°46' W 118°12'0 0.0
2018-Jun-24 12:30N 33°46' W 118°12'0 0.0
2018-Jun-24 12:01N 33°46' W 118°12'0 0.0
2018-Jun-24 11:30N 33°46' W 118°12'0 0.0
2018-Jun-24 11:00N 33°46' W 118°12'0 0.0
2018-Jun-24 10:30N 33°46' W 118°12'0 0.0
2018-Jun-24 03:50N 33°46' W 118°12'2 7.7
2018-Jun-24 03:30N 33°43' W 118°11'1528.2
2018-Jun-24 03:00N 33°29' W 118°15'9 7.4
2018-Jun-24 01:47N 33°21' W 118°19'1529.2
2018-Jun-24 01:16N 33°35' W 118°14'828.9
2018-Jun-24 01:00N 33°42' W 118°11'3 6.9
2018-Jun-24 00:31N 33°46' W 118°12'0 0.0
2018-Jun-24 00:01N 33°46' W 118°12'816.9
2018-Jun-23 23:30N 33°37' W 118°12'1712.8
2018-Jun-23 22:10N 33°21' W 118°19'1426.8
2018-Jun-23 21:39N 33°34' W 118°14'427.8
2018-Jun-23 21:30N 33°38' W 118°13'815.9
2018-Jun-23 21:01N 33°46' W 118°12'0 0.0
2018-Jun-23 20:31N 33°46' W 118°12'0 0.0
2018-Jun-23 20:00N 33°46' W 118°12'5 9.8
2018-Jun-23 19:30N 33°41' W 118°11'2115.1
2018-Jun-23 18:05N 33°21' W 118°19'1525.5
2018-Jun-23 17:31N 33°35' W 118°14'026.7
2018-Jun-23 17:30N 33°35' W 118°14'1121.5
2018-Jun-23 17:00N 33°46' W 118°12'0 0.7
2018-Jun-23 16:30N 33°46' W 118°12'0 0.0
2018-Jun-23 16:00N 33°46' W 118°12'612.1
2018-Jun-23 15:30N 33°40' W 118°12'1631.0
2018-Jun-23 15:00N 33°25' W 118°18'4 4.1
2018-Jun-23 14:05N 33°21' W 118°19'1528.0
2018-Jun-23 13:32N 33°35' W 118°13'128.5
2018-Jun-23 13:30N 33°36' W 118°13'1019.2
2018-Jun-23 13:00N 33°46' W 118°12'0 0.0
2018-Jun-23 12:30N 33°46' W 118°12'0 0.0
2018-Jun-23 12:00N 33°46' W 118°12'0 0.0
2018-Jun-23 11:30N 33°46' W 118°12'0 0.0
2018-Jun-23 11:00N 33°46' W 118°12'0 0.0
2018-Jun-23 10:29N 33°46' W 118°12'0 0.0
2018-Jun-23 03:43N 33°46' W 118°12'1 3.5
2018-Jun-23 03:30N 33°45' W 118°11'1326.3
2018-Jun-23 03:00N 33°32' W 118°14'1210.0
2018-Jun-23 01:51N 33°22' W 118°19'1030.0
2018-Jun-23 01:31N 33°31' W 118°16'1427.9
2018-Jun-23 01:00N 33°45' W 118°11'1 2.9
2018-Jun-23 00:30N 33°46' W 118°12'0 0.0
2018-Jun-23 00:00N 33°46' W 118°12'918.3
2018-Jun-22 23:30N 33°37' W 118°13'6 3.2
2018-Jun-22 21:45N 33°32' W 118°15'728.5
2018-Jun-22 21:30N 33°38' W 118°13'815.3
2018-Jun-22 21:00N 33°46' W 118°12'0 0.0
2018-Jun-22 20:30N 33°46' W 118°12'0 0.0
2018-Jun-22 20:00N 33°46' W 118°12'713.5
2018-Jun-22 19:30N 33°39' W 118°12'1428.6
2018-Jun-22 19:00N 33°25' W 118°17'5 5.8
2018-Jun-22 18:08N 33°21' W 118°19'1725.0
2018-Jun-22 17:28N 33°36' W 118°13'919.6
2018-Jun-22 17:00N 33°45' W 118°12'0 0.9
2018-Jun-22 16:30N 33°46' W 118°12'0 0.0
2018-Jun-22 16:00N 33°46' W 118°12'510.6
2018-Jun-22 15:31N 33°41' W 118°11'1830.2
2018-Jun-22 14:55N 33°24' W 118°18'2 2.6
2018-Jun-22 13:59N 33°21' W 118°19'1429.8
2018-Jun-22 13:30N 33°35' W 118°13'1121.6
2018-Jun-22 13:00N 33°46' W 118°12'0 0.1
2018-Jun-22 12:30N 33°46' W 118°12'0 0.0
2018-Jun-22 12:00N 33°46' W 118°12'0 0.0
2018-Jun-22 11:30N 33°46' W 118°12'0 0.0
2018-Jun-22 11:00N 33°46' W 118°12'0 0.0
2018-Jun-22 10:30N 33°46' W 118°12'0 0.0
2018-Jun-22 03:06N 33°46' W 118°12'0 0.0
2018-Jun-22 03:00N 33°46' W 118°12'0 0.0
2018-Jun-22 02:30N 33°46' W 118°12'816.0
2018-Jun-22 02:00N 33°38' W 118°12'1530.1
2018-Jun-22 01:30N 33°24' W 118°18'3 3.8
2018-Jun-22 00:42N 33°21' W 118°19'1123.8
2018-Jun-22 00:14N 33°31' W 118°15'730.0
2018-Jun-22 00:01N 33°38' W 118°13'816.3
2018-Jun-21 23:30N 33°46' W 118°12'0 0.0
2018-Jun-21 23:00N 33°46' W 118°12'0 0.0
2018-Jun-21 22:30N 33°46' W 118°12'611.2
2018-Jun-21 22:01N 33°40' W 118°11'1630.5
2018-Jun-21 21:30N 33°26' W 118°17'4 3.8
2018-Jun-21 20:19N 33°21' W 118°19'1329.8
2018-Jun-21 19:54N 33°34' W 118°14'1129.0
2018-Jun-21 19:31N 33°44' W 118°10'2 4.0
2018-Jun-21 19:00N 33°46' W 118°12'0 0.0
2018-Jun-21 18:30N 33°46' W 118°12'4 8.2
2018-Jun-21 18:00N 33°42' W 118°11'2213.6
2018-Jun-21 16:25N 33°21' W 118°19'1525.6
2018-Jun-21 15:51N 33°35' W 118°14'1029.0
2018-Jun-21 15:31N 33°44' W 118°10'2 3.8
2018-Jun-21 15:01N 33°46' W 118°12'0 0.0
2018-Jun-21 14:30N 33°46' W 118°12'0 0.0
2018-Jun-21 14:01N 33°46' W 118°12'0 0.0
2018-Jun-21 13:30N 33°46' W 118°12'0 0.0
2018-Jun-21 13:00N 33°46' W 118°12'0 0.0
2018-Jun-21 12:30N 33°46' W 118°12'0 0.0
2018-Jun-21 12:00N 33°46' W 118°12'0 0.0
2018-Jun-21 11:30N 33°46' W 118°12'0 0.0
2018-Jun-21 11:00N 33°46' W 118°12'0 0.0
2018-Jun-21 03:44N 33°46' W 118°12'0 2.0
2018-Jun-21 03:30N 33°45' W 118°12'1326.3
2018-Jun-21 03:00N 33°33' W 118°14'1316.4
2018-Jun-21 02:13N 33°21' W 118°19'0 0.0
2018-Jun-21 01:56N 33°21' W 118°19'1226.7
2018-Jun-21 01:29N 33°32' W 118°16'1327.3
2018-Jun-21 01:00N 33°45' W 118°11'1 2.6
2018-Jun-21 00:30N 33°46' W 118°12'0 0.0
2018-Jun-21 00:00N 33°46' W 118°12'816.6
2018-Jun-20 23:31N 33°38' W 118°12'1729.5
2018-Jun-20 22:57N 33°22' W 118°19'1 2.0
2018-Jun-20 22:19N 33°21' W 118°19'1522.1
2018-Jun-20 21:39N 33°35' W 118°14'429.9
2018-Jun-20 21:31N 33°39' W 118°13'714.2
2018-Jun-20 21:00N 33°46' W 118°12'0 0.0
2018-Jun-20 20:30N 33°46' W 118°12'0 0.0
2018-Jun-20 20:00N 33°46' W 118°12'611.3
2018-Jun-20 19:31N 33°40' W 118°11'1529.1
2018-Jun-20 19:00N 33°26' W 118°17'5 4.5
2018-Jun-20 17:51N 33°21' W 118°19'1529.3
2018-Jun-20 17:22N 33°35' W 118°13'1028.8
2018-Jun-20 17:00N 33°45' W 118°11'1 2.1
2018-Jun-20 16:30N 33°46' W 118°12'0 0.0
2018-Jun-20 16:00N 33°46' W 118°12'510.4
2018-Jun-20 15:30N 33°41' W 118°11'1530.6
2018-Jun-20 15:00N 33°26' W 118°17'5 5.4
2018-Jun-20 14:00N 33°21' W 118°19'1529.2
2018-Jun-20 13:30N 33°35' W 118°14'1121.7
2018-Jun-20 13:00N 33°46' W 118°12'0 0.1
2018-Jun-20 12:30N 33°46' W 118°12'0 0.0
2018-Jun-20 12:00N 33°46' W 118°12'0 0.0
2018-Jun-20 11:30N 33°46' W 118°12'0 0.0
2018-Jun-20 10:59N 33°46' W 118°12'0 0.0
2018-Jun-20 10:30N 33°46' W 118°12'0 0.0
2018-Jun-20 10:00N 33°46' W 118°12'0 0.0
2018-Jun-20 09:30N 33°46' W 118°12'0 0.0
2018-Jun-20 09:00N 33°46' W 118°12'0 0.0
2018-Jun-20 08:30N 33°46' W 118°12'0 0.0
2018-Jun-20 08:00N 33°46' W 118°12'0 0.0
2018-Jun-20 07:30N 33°46' W 118°12'0 0.0
2018-Jun-20 07:00N 33°46' W 118°12'0 0.0
2018-Jun-20 06:30N 33°46' W 118°12'0 0.0
2018-Jun-20 06:00N 33°46' W 118°12'0 0.0
2018-Jun-20 05:30N 33°46' W 118°12'0 0.0
2018-Jun-20 05:00N 33°46' W 118°12'0 0.0
2018-Jun-20 04:30N 33°46' W 118°12'0 0.0
2018-Jun-20 04:00N 33°46' W 118°12'0 0.0
2018-Jun-20 03:30N 33°46' W 118°12'0 0.0
2018-Jun-20 03:00N 33°46' W 118°12'0 0.0
2018-Jun-20 02:30N 33°46' W 118°12'613.1
2018-Jun-20 02:01N 33°39' W 118°12'1529.5
2018-Jun-20 01:30N 33°25' W 118°17'5 5.6
2018-Jun-20 00:38N 33°21' W 118°19'1428.8
2018-Jun-20 00:09N 33°34' W 118°14'430.6
2018-Jun-20 00:01N 33°38' W 118°13'714.8
2018-Jun-19 23:30N 33°46' W 118°12'0 0.0
2018-Jun-19 23:00N 33°46' W 118°12'0 0.0
2018-Jun-19 22:30N 33°46' W 118°12'713.0
2018-Jun-19 22:00N 33°39' W 118°12'1911.5
2018-Jun-19 20:20N 33°21' W 118°19'1528.7
2018-Jun-19 19:48N 33°35' W 118°14'928.7
2018-Jun-19 19:31N 33°43' W 118°11'2 4.8
2018-Jun-19 19:00N 33°46' W 118°12'0 0.0
2018-Jun-19 18:30N 33°46' W 118°12'4 8.2
2018-Jun-19 18:01N 33°42' W 118°11'2213.6
2018-Jun-19 16:24N 33°21' W 118°19'1327.0
2018-Jun-19 15:55N 33°33' W 118°14'1227.8
2018-Jun-19 15:30N 33°45' W 118°11'1 3.0
2018-Jun-19 15:00N 33°46' W 118°12'0 0.0
2018-Jun-19 14:30N 33°46' W 118°12'0 0.0
2018-Jun-19 14:00N 33°46' W 118°12'0 0.0
2018-Jun-19 13:30N 33°46' W 118°12'0 0.0
2018-Jun-19 13:00N 33°46' W 118°12'0 0.0
2018-Jun-19 12:30N 33°46' W 118°12'0 0.0
2018-Jun-19 12:00N 33°46' W 118°12'0 0.0
2018-Jun-19 03:41N 33°46' W 118°12'1 3.0
2018-Jun-19 03:30N 33°45' W 118°11'1325.7
2018-Jun-19 03:00N 33°33' W 118°14'3 1.5
2018-Jun-19 01:18N 33°35' W 118°14'929.5
2018-Jun-19 01:01N 33°44' W 118°11'2 4.8
2018-Jun-19 00:30N 33°46' W 118°12'0 0.0
2018-Jun-19 00:00N 33°46' W 118°12'816.6
2018-Jun-18 23:30N 33°38' W 118°13'1712.1
2018-Jun-18 22:04N 33°21' W 118°19'1528.5
2018-Jun-18 21:32N 33°36' W 118°13'129.8
2018-Jun-18 21:30N 33°36' W 118°13'1019.3
2018-Jun-18 21:00N 33°46' W 118°12'0 0.0
2018-Jun-18 20:30N 33°46' W 118°12'0 0.0
2018-Jun-18 20:00N 33°46' W 118°12'713.7
2018-Jun-18 19:31N 33°39' W 118°12'1913.0
2018-Jun-18 18:02N 33°21' W 118°19'0 6.1
2018-Jun-18 18:00N 33°21' W 118°19'1428.1
2018-Jun-18 17:31N 33°34' W 118°14'1122.3
2018-Jun-18 17:00N 33°45' W 118°12'0 0.8
2018-Jun-18 16:30N 33°46' W 118°12'0 0.0
2018-Jun-18 16:00N 33°46' W 118°12'815.6
2018-Jun-18 15:31N 33°38' W 118°12'1812.1
2018-Jun-18 14:03N 33°21' W 118°19'1229.3
2018-Jun-18 13:38N 33°33' W 118°15'429.4
2018-Jun-18 13:31N 33°36' W 118°14'1019.0
2018-Jun-18 13:00N 33°46' W 118°12'0 0.1
2018-Jun-18 12:30N 33°46' W 118°12'0 0.0
2018-Jun-18 12:00N 33°46' W 118°12'0 0.0
2018-Jun-18 11:30N 33°46' W 118°12'0 0.0
2018-Jun-18 11:00N 33°46' W 118°12'0 0.0
2018-Jun-18 10:30N 33°46' W 118°12'0 0.0
2018-Jun-18 04:22N 33°46' W 118°12'0 0.0
2018-Jun-18 04:00N 33°46' W 118°12'2 3.2
2018-Jun-18 03:31N 33°44' W 118°11'1428.7
2018-Jun-18 03:01N 33°31' W 118°15'10 8.4
2018-Jun-18 01:48N 33°21' W 118°19'1229.8
2018-Jun-18 01:24N 33°32' W 118°15'1230.0
2018-Jun-18 01:00N 33°44' W 118°11'2 4.4
2018-Jun-18 00:30N 33°46' W 118°12'0 0.0
2018-Jun-18 00:00N 33°46' W 118°12'1019.1
2018-Jun-17 23:30N 33°36' W 118°13'1611.8
2018-Jun-17 22:08N 33°21' W 118°19'1128.9
2018-Jun-17 21:46N 33°31' W 118°16'829.5
2018-Jun-17 21:30N 33°39' W 118°13'714.6
2018-Jun-17 21:00N 33°46' W 118°12'0 0.0
2018-Jun-17 20:30N 33°46' W 118°12'0 0.0
2018-Jun-17 20:00N 33°46' W 118°12'611.8
2018-Jun-17 19:31N 33°40' W 118°11'8 3.9
2018-Jun-17 17:32N 33°33' W 118°15'128.7
2018-Jun-17 17:30N 33°34' W 118°14'1224.5
2018-Jun-17 17:00N 33°45' W 118°12'0 1.0
2018-Jun-17 16:30N 33°46' W 118°12'0 0.0
2018-Jun-17 16:00N 33°46' W 118°12'5 9.3
2018-Jun-17 15:30N 33°41' W 118°11'5 2.7
2018-Jun-17 13:35N 33°36' W 118°13'230.3
2018-Jun-17 13:30N 33°39' W 118°12'714.4
2018-Jun-17 13:00N 33°46' W 118°12'0 0.0
2018-Jun-17 12:30N 33°46' W 118°12'0 0.0
2018-Jun-17 11:59N 33°46' W 118°12'0 0.0
2018-Jun-17 11:30N 33°46' W 118°12'0 0.0
2018-Jun-17 11:00N 33°46' W 118°12'0 0.0
2018-Jun-17 10:30N 33°46' W 118°12'0 0.0
2018-Jun-17 10:00N 33°46' W 118°12'0 0.0
2018-Jun-17 09:30N 33°46' W 118°12'0 0.0
2018-Jun-17 09:00N 33°46' W 118°12'0 0.0
2018-Jun-17 08:30N 33°46' W 118°12'0 0.0
2018-Jun-17 08:00N 33°46' W 118°12'0 0.0
2018-Jun-17 07:30N 33°46' W 118°12'0 0.0
2018-Jun-17 07:00N 33°46' W 118°12'0 0.0
2018-Jun-17 06:30N 33°46' W 118°12'0 0.0
2018-Jun-17 06:00N 33°46' W 118°12'0 0.0
2018-Jun-17 05:30N 33°46' W 118°12'0 0.0
2018-Jun-17 05:00N 33°46' W 118°12'0 0.0
2018-Jun-17 04:30N 33°46' W 118°12'0 0.0
2018-Jun-17 04:00N 33°46' W 118°12'0 0.9
2018-Jun-17 03:30N 33°45' W 118°12'1326.0
2018-Jun-17 03:01N 33°33' W 118°14'2 1.3
2018-Jun-17 01:21N 33°35' W 118°14'1029.5
2018-Jun-17 01:00N 33°44' W 118°11'2 3.4
2018-Jun-17 00:30N 33°46' W 118°12'0 0.0
2018-Jun-16 23:59N 33°46' W 118°12'918.9
2018-Jun-16 23:30N 33°37' W 118°13'1712.0
2018-Jun-16 22:07N 33°21' W 118°19'1428.7
2018-Jun-16 21:38N 33°35' W 118°14'430.9
2018-Jun-16 21:30N 33°38' W 118°13'815.4
2018-Jun-16 21:00N 33°46' W 118°12'0 0.0
2018-Jun-16 20:30N 33°46' W 118°12'0 0.0
2018-Jun-16 20:00N 33°46' W 118°12'510.8
2018-Jun-16 19:30N 33°41' W 118°11'1631.5
2018-Jun-16 19:00N 33°26' W 118°17'4 4.4
2018-Jun-16 18:03N 33°22' W 118°19'1228.3
2018-Jun-16 17:37N 33°33' W 118°14'327.9
2018-Jun-16 17:30N 33°36' W 118°13'918.5
2018-Jun-16 17:00N 33°46' W 118°12'0 0.2
2018-Jun-16 16:30N 33°46' W 118°12'0 0.0
2018-Jun-16 16:00N 33°46' W 118°12'5 9.1
2018-Jun-16 15:30N 33°41' W 118°11'2215.6
2018-Jun-16 14:08N 33°21' W 118°19'1327.1
2018-Jun-16 13:39N 33°33' W 118°14'429.1
2018-Jun-16 13:31N 33°37' W 118°13'917.3
2018-Jun-16 13:00N 33°46' W 118°12'0 0.0
2018-Jun-16 12:30N 33°46' W 118°12'0 0.0
2018-Jun-16 12:00N 33°46' W 118°12'0 0.0
2018-Jun-16 11:30N 33°46' W 118°12'0 0.0
2018-Jun-16 11:00N 33°46' W 118°12'0 0.0
2018-Jun-16 10:29N 33°46' W 118°12'0 0.0
2018-Jun-16 10:00N 33°46' W 118°12'0 0.0
2018-Jun-16 09:30N 33°46' W 118°12'0 0.1
2018-Jun-16 03:31N 33°46' W 118°12'0 6.8
2018-Jun-16 03:30N 33°45' W 118°12'1225.7
2018-Jun-16 03:01N 33°33' W 118°14'1310.6
2018-Jun-16 01:48N 33°21' W 118°19'1029.3
2018-Jun-16 01:27N 33°31' W 118°16'1329.8
2018-Jun-16 01:00N 33°43' W 118°11'2 5.0
2018-Jun-16 00:31N 33°46' W 118°12'0 0.0
2018-Jun-16 00:01N 33°46' W 118°12'815.2
2018-Jun-15 23:30N 33°38' W 118°12'1529.8
2018-Jun-15 23:00N 33°24' W 118°18'3 6.0
2018-Jun-15 22:28N 33°21' W 118°19'3 5.4
2018-Jun-15 21:57N 33°23' W 118°18'1329.6
2018-Jun-15 21:30N 33°36' W 118°13'1019.9
2018-Jun-15 21:00N 33°46' W 118°12'0 0.1
2018-Jun-15 20:30N 33°46' W 118°12'0 0.0
2018-Jun-15 20:00N 33°46' W 118°12'510.4
2018-Jun-15 19:31N 33°41' W 118°11'1630.0
2018-Jun-15 18:59N 33°26' W 118°17'4 3.9
2018-Jun-15 17:58N 33°22' W 118°19'1428.4
2018-Jun-15 17:28N 33°35' W 118°13'1022.0
2018-Jun-15 17:00N 33°46' W 118°12'0 0.6
2018-Jun-15 16:31N 33°46' W 118°12'0 0.0
2018-Jun-15 16:01N 33°46' W 118°12'4 8.5
2018-Jun-15 15:31N 33°42' W 118°11'1530.5
2018-Jun-15 15:00N 33°27' W 118°17'7 7.5
2018-Jun-15 14:06N 33°21' W 118°19'1026.0
2018-Jun-15 13:44N 33°30' W 118°16'629.5
2018-Jun-15 13:31N 33°36' W 118°13'1019.3
2018-Jun-15 13:01N 33°46' W 118°12'0 0.0
2018-Jun-15 12:30N 33°46' W 118°12'0 0.0
2018-Jun-15 12:01N 33°46' W 118°12'0 0.0
2018-Jun-15 11:31N 33°46' W 118°12'0 0.0
2018-Jun-15 11:01N 33°46' W 118°12'0 0.0
2018-Jun-15 05:18N 33°46' W 118°12'0 0.0
2018-Jun-15 05:00N 33°46' W 118°12'0 0.0
2018-Jun-15 04:30N 33°46' W 118°12'0 0.0
2018-Jun-15 04:00N 33°46' W 118°12'2 3.3
2018-Jun-15 03:30N 33°44' W 118°11'1427.9
2018-Jun-15 03:00N 33°31' W 118°16'1120.7
2018-Jun-15 02:29N 33°21' W 118°19'0 0.1
2018-Jun-15 02:00N 33°21' W 118°19'918.1
2018-Jun-15 01:30N 33°29' W 118°15'1429.0
2018-Jun-15 01:01N 33°43' W 118°11'  

Dump ship's entire track history